Time;durP1;ratioP1;P1;durP2;ratioP2;P2;SDS_P1;SDS_P2;PMS_P1;PMS_P2;Temp;Humidity;BMP_temperature;BMP_pressure;BME280_temperature;BME280_humidity;BME280_pressure;Samples;Min_cycle;Max_cycle;Signal;HPM_P1;HPM_P2
2022/06/30 00:02:04;;;;;;;1.40;1.30;;;22.30;60.30;;;;;;5089095;28;20106;-38
2022/06/30 00:04:30;;;;;;;4.47;2.43;;;22.20;60.10;;;;;;5063534;28;20789;-39
2022/06/30 00:06:56;;;;;;;3.03;2.03;;;22.30;60.70;;;;;;5072187;28;20028;-37
2022/06/30 00:09:22;;;;;;;5.70;2.45;;;22.20;60.40;;;;;;5075160;28;20072;-39
2022/06/30 00:11:48;;;;;;;2.47;1.70;;;22.20;60.70;;;;;;5083824;28;20033;-39
2022/06/30 00:14:14;;;;;;;2.17;1.63;;;22.20;60.70;;;;;;5088545;28;20388;-39
2022/06/30 00:16:41;;;;;;;1.60;1.50;;;22.20;60.40;;;;;;5083735;28;20056;-39
2022/06/30 00:19:07;;;;;;;2.20;1.50;;;22.10;60.30;;;;;;5085600;28;20485;-39
2022/06/30 00:21:33;;;;;;;1.60;1.50;;;22.10;60.20;;;;;;5083565;28;20040;-39
2022/06/30 00:23:59;;;;;;;1.50;1.40;;;22.10;60.30;;;;;;5082736;28;20021;-39
2022/06/30 00:26:25;;;;;;;2.22;1.20;;;22.10;59.70;;;;;;5083224;28;20024;-39
2022/06/30 00:28:51;;;;;;;1.42;1.33;;;22.10;59.30;;;;;;5089107;28;20028;-39
2022/06/30 00:31:18;;;;;;;1.58;1.35;;;22.10;59.30;;;;;;5104436;28;20031;-39
2022/06/30 00:33:44;;;;;;;1.40;1.30;;;22.10;59.10;;;;;;5088898;28;20044;-42
2022/06/30 00:36:10;;;;;;;1.45;1.33;;;22.10;59.00;;;;;;5096124;28;20032;-38
2022/06/30 00:38:38;;;;;;;2.00;1.67;;;22.00;60.60;;;;;;5083176;28;20025;-39
2022/06/30 00:41:04;;;;;;;;;;;21.90;61.30;;;;;;5101675;28;20028;-38
2022/06/30 00:43:30;;;;;;;1.30;1.20;;;21.90;61.90;;;;;;5083549;28;19921;-38
2022/06/30 00:45:56;;;;;;;1.58;1.38;;;21.80;62.10;;;;;;5072001;28;20032;-38
2022/06/30 00:48:22;;;;;;;3.88;1.25;;;21.80;62.10;;;;;;5102491;28;20100;-38
2022/06/30 00:50:48;;;;;;;1.42;1.10;;;21.80;62.20;;;;;;5104127;28;20024;-38
2022/06/30 00:53:15;;;;;;;1.30;1.02;;;21.70;62.20;;;;;;5090141;28;20131;-38
2022/06/30 00:55:41;;;;;;;2.03;1.20;;;21.70;62.30;;;;;;5075945;28;20033;-38
2022/06/30 00:58:08;;;;;;;1.15;1.05;;;21.70;62.30;;;;;;5081538;28;20139;-38
2022/06/30 01:00:38;;;;;;;1.60;1.30;;;21.70;62.30;;;;;;5084950;28;20031;-38
2022/06/30 01:03:06;;;;;;;1.48;1.38;;;21.60;62.20;;;;;;5089757;28;20047;-38
2022/06/30 01:05:32;;;;;;;1.05;0.93;;;21.60;62.10;;;;;;5083212;28;20020;-38
2022/06/30 01:07:58;;;;;;;1.23;1.13;;;21.60;62.10;;;;;;5086453;28;20044;-40
2022/06/30 01:13:09;;;;;;;1.73;1.10;;;21.60;62.80;;;;;;5071519;28;20036;-40
2022/06/30 01:15:35;;;;;;;1.48;1.30;;;21.60;62.90;;;;;;5068279;28;20029;-39
2022/06/30 01:18:01;;;;;;;1.65;1.30;;;21.60;63.10;;;;;;5075916;28;20025;-39
2022/06/30 01:20:31;;;;;;;2.13;1.13;;;21.50;63.30;;;;;;5078130;28;20058;-38
2022/06/30 01:22:58;;;;;;;1.10;1.00;;;21.50;63.20;;;;;;5076790;28;20881;-38
2022/06/30 01:25:24;;;;;;;1.30;1.20;;;21.50;63.10;;;;;;5079315;28;20091;-39
2022/06/30 01:27:54;;;;;;;2.15;1.42;;;21.50;63.00;;;;;;5072065;28;20123;-39
2022/06/30 01:30:20;;;;;;;3.40;2.33;;;21.50;63.10;;;;;;5076247;28;20032;-39
2022/06/30 01:32:47;;;;;;;48.30;30.50;;;21.50;63.00;;;;;;5076615;28;20041;-38
2022/06/30 01:35:13;;;;;;;22.08;15.68;;;21.50;62.90;;;;;;5060833;28;20032;-38
2022/06/30 01:37:56;;;;;;;27.33;18.60;;;21.50;63.70;;;;;;5073020;28;20029;-39
2022/06/30 01:40:23;;;;;;;24.50;16.90;;;21.50;64.40;;;;;;5072989;28;20040;-39
2022/06/30 01:42:50;;;;;;;;;;;21.50;64.70;;;;;;5068203;28;20124;-39
2022/06/30 01:45:17;;;;;;;50.88;33.75;;;21.50;64.40;;;;;;5070130;28;19917;-38
2022/06/30 01:47:43;;;;;;;38.37;24.13;;;21.50;64.10;;;;;;5071120;28;20046;-38
2022/06/30 01:50:14;;;;;;;43.22;28.88;;;21.50;63.80;;;;;;5081647;28;20024;-38
2022/06/30 01:52:40;;;;;;;22.73;15.30;;;21.40;63.50;;;;;;5068708;28;20041;-39
2022/06/30 01:55:07;;;;;;;24.40;16.85;;;21.50;64.30;;;;;;5071921;28;20564;-39
2022/06/30 01:57:33;;;;;;;24.57;16.50;;;21.50;64.80;;;;;;5075510;28;20040;-38
2022/06/30 02:00:00;;;;;;;35.88;24.05;;;21.50;65.00;;;;;;5071792;28;20025;-38
2022/06/30 02:02:26;;;;;;;32.90;22.07;;;21.50;64.70;;;;;;5078202;28;20036;-38
2022/06/30 02:04:53;;;;;;;30.73;20.60;;;21.50;64.40;;;;;;5072238;28;20126;-38
2022/06/30 02:07:19;;;;;;;;;;;21.50;64.20;;;;;;5069874;28;20024;-37
2022/06/30 02:09:46;;;;;;;24.40;16.83;;;21.50;64.10;;;;;;5071476;28;19912;-38
2022/06/30 02:14:57;;;;;;;20.52;14.85;;;21.50;64.70;;;;;;5075731;28;20043;-38
2022/06/30 02:17:24;;;;;;;20.87;14.43;;;21.50;65.20;;;;;;5075716;28;20029;-38
2022/06/30 02:19:50;;;;;;;22.63;15.75;;;21.50;65.30;;;;;;5076943;28;20024;-39
2022/06/30 02:22:16;;;;;;;20.92;15.10;;;21.50;65.00;;;;;;5068253;28;20112;-38
2022/06/30 02:24:42;;;;;;;19.83;14.20;;;21.50;64.60;;;;;;5068141;28;20084;-37
2022/06/30 02:27:08;;;;;;;19.50;13.88;;;21.50;64.20;;;;;;5074320;28;20058;-38
2022/06/30 02:29:34;;;;;;;17.98;13.40;;;21.50;64.50;;;;;;5064196;28;20112;-38
2022/06/30 02:32:01;;;;;;;19.02;13.65;;;21.50;65.00;;;;;;5075503;28;20056;-38
2022/06/30 02:34:28;;;;;;;17.98;12.95;;;21.60;65.20;;;;;;5075498;28;20055;-38
2022/06/30 02:36:55;;;;;;;16.88;12.05;;;21.60;65.40;;;;;;5075067;28;20044;-38
2022/06/30 02:39:21;;;;;;;17.58;12.13;;;21.60;65.40;;;;;;5075108;28;20025;-38
2022/06/30 02:41:47;;;;;;;17.80;12.27;;;21.60;65.20;;;;;;5070736;28;20065;-38
2022/06/30 02:44:14;;;;;;;13.70;10.35;;;21.60;64.60;;;;;;5070457;28;20101;-38
2022/06/30 02:46:40;;;;;;;13.77;10.38;;;21.60;64.40;;;;;;5068717;28;20032;-38
2022/06/30 02:49:06;;;;;;;12.57;10.02;;;21.60;64.50;;;;;;5075362;28;20029;-38
2022/06/30 02:51:32;;;;;;;12.27;9.70;;;21.60;64.80;;;;;;5070317;28;20048;-38
2022/06/30 02:53:58;;;;;;;14.15;9.98;;;21.60;64.90;;;;;;5068862;28;20029;-37
2022/06/30 02:56:25;;;;;;;12.83;9.77;;;21.60;65.00;;;;;;5064554;28;20039;-38
2022/06/30 02:58:51;;;;;;;12.98;9.68;;;21.60;65.20;;;;;;5063121;28;20039;-38
2022/06/30 03:01:17;;;;;;;12.67;9.40;;;21.60;65.10;;;;;;5068089;28;20025;-38
2022/06/30 03:03:43;;;;;;;12.90;8.93;;;21.60;65.00;;;;;;5069130;28;20281;-38
2022/06/30 03:06:09;;;;;;;10.02;7.90;;;21.60;64.90;;;;;;5065904;28;20032;-38
2022/06/30 03:08:36;;;;;;;10.73;8.00;;;21.60;65.00;;;;;;5071158;28;20047;-37
2022/06/30 03:11:02;;;;;;;10.43;7.63;;;21.60;65.10;;;;;;5063578;28;20025;-38
2022/06/30 03:13:28;;;;;;;9.20;7.10;;;21.60;65.00;;;;;;5068609;28;20033;-38
2022/06/30 03:15:54;;;;;;;9.52;7.40;;;21.60;65.00;;;;;;5065126;28;20055;-42
2022/06/30 03:18:20;;;;;;;10.10;7.40;;;21.60;65.10;;;;;;5065489;28;21090;-43
2022/06/30 03:20:47;;;;;;;10.63;6.65;;;21.60;65.00;;;;;;5066527;28;20156;-43
2022/06/30 03:23:13;;;;;;;7.95;6.05;;;21.60;64.50;;;;;;5069309;28;20033;-44
2022/06/30 03:25:39;;;;;;;8.98;6.45;;;21.70;64.30;;;;;;5074829;28;20021;-44
2022/06/30 03:28:05;;;;;;;7.22;5.53;;;21.70;64.30;;;;;;5073009;28;20029;-44
2022/06/30 03:30:31;;;;;;;7.45;5.50;;;21.70;64.40;;;;;;5067515;28;20024;-42
2022/06/30 03:32:57;;;;;;;10.13;6.40;;;21.60;64.40;;;;;;5071813;28;20060;-42
2022/06/30 03:35:24;;;;;;;8.55;5.85;;;21.70;64.60;;;;;;5075175;28;20055;-44
2022/06/30 03:37:50;;;;;;;10.63;6.15;;;21.70;64.60;;;;;;5076315;28;20484;-36
2022/06/30 03:40:16;;;;;;;7.93;5.60;;;21.70;65.10;;;;;;5074955;28;20032;-44
2022/06/30 03:42:42;;;;;;;8.00;5.47;;;21.70;64.50;;;;;;5078815;28;20048;-44
2022/06/30 03:45:09;;;;;;;7.50;5.15;;;21.70;64.20;;;;;;5082033;28;20016;-47
2022/06/30 03:47:35;;;;;;;7.82;5.03;;;21.70;64.90;;;;;;5080038;28;20056;-48
2022/06/30 03:50:01;;;;;;;8.75;5.10;;;21.70;65.10;;;;;;5077619;28;20040;-43
2022/06/30 03:52:27;;;;;;;5.75;4.78;;;21.70;65.10;;;;;;5080647;28;20040;-44
2022/06/30 03:54:53;;;;;;;6.97;4.93;;;21.80;65.10;;;;;;5070882;28;20029;-45
2022/06/30 03:57:20;;;;;;;7.10;4.75;;;21.80;65.20;;;;;;5068799;28;20036;-42
2022/06/30 03:59:46;;;;;;;4.47;3.95;;;21.80;65.10;;;;;;5071079;28;20024;-44
2022/06/30 04:02:12;;;;;;;5.78;4.30;;;21.80;64.20;;;;;;5070450;28;20058;-44
2022/06/30 04:04:38;;;;;;;5.88;4.15;;;21.80;63.60;;;;;;5072144;28;20025;-47
2022/06/30 04:07:04;;;;;;;5.05;3.75;;;21.80;64.20;;;;;;5069573;28;20120;-43
2022/06/30 04:09:31;;;;;;;5.13;4.03;;;21.80;64.30;;;;;;5070544;28;20097;-41
2022/06/30 04:11:57;;;;;;;6.07;3.80;;;21.80;64.30;;;;;;5070570;28;20108;-43
2022/06/30 04:14:23;;;;;;;4.72;3.55;;;21.80;64.40;;;;;;5071406;28;20047;-44
2022/06/30 04:16:49;;;;;;;4.82;3.50;;;21.80;64.50;;;;;;5071609;28;20077;-42
2022/06/30 04:19:15;;;;;;;3.30;3.00;;;21.90;64.10;;;;;;5070182;28;20021;-43
2022/06/30 04:21:41;;;;;;;5.20;3.55;;;21.80;63.40;;;;;;5070108;28;20033;-45
2022/06/30 04:24:08;;;;;;;4.50;3.40;;;21.80;63.50;;;;;;5074666;28;20103;-42
2022/06/30 04:26:34;;;;;;;5.10;3.65;;;21.90;64.10;;;;;;5102741;28;20556;-42
2022/06/30 04:29:00;;;;;;;5.28;3.10;;;21.90;64.30;;;;;;5070144;28;20032;-43
2022/06/30 04:34:11;;;;;;;5.15;3.20;;;21.90;64.40;;;;;;5070258;28;20031;-41
2022/06/30 04:36:37;;;;;;;3.30;3.00;;;21.90;64.50;;;;;;5069025;28;20036;-43
2022/06/30 04:39:03;;;;;;;3.03;2.63;;;21.90;64.70;;;;;;5070540;28;20035;-44
2022/06/30 04:41:29;;;;;;;3.45;2.85;;;21.90;64.70;;;;;;5068631;28;20021;-43
2022/06/30 04:43:56;;;;;;;3.60;2.90;;;21.90;64.20;;;;;;5067691;28;20083;-42
2022/06/30 04:46:23;;;;;;;3.85;3.17;;;21.90;63.80;;;;;;5062824;28;20033;-44
2022/06/30 04:48:49;;;;;;;4.40;2.90;;;21.90;64.30;;;;;;5064507;28;20063;-44
2022/06/30 04:51:16;;;;;;;3.20;2.75;;;21.90;64.50;;;;;;5066529;28;20056;-42
2022/06/30 04:53:42;;;;;;;4.25;2.45;;;21.90;64.50;;;;;;5063019;28;20102;-44
2022/06/30 04:56:09;;;;;;;3.77;2.67;;;21.90;64.60;;;;;;5053328;28;20040;-43
2022/06/30 04:58:35;;;;;;;3.58;2.72;;;21.90;64.80;;;;;;5059497;28;20545;-41
2022/06/30 05:01:04;;;;;;;3.25;2.42;;;21.90;64.80;;;;;;5061928;28;20131;-44
2022/06/30 05:03:30;;;;;;;2.85;2.50;;;22.00;64.90;;;;;;5058551;28;20059;-43
2022/06/30 05:05:57;;;;;;;2.80;2.50;;;22.00;64.70;;;;;;5060125;28;20032;-42
2022/06/30 05:08:23;;;;;;;2.70;2.50;;;22.00;64.10;;;;;;5060538;28;20025;-43
2022/06/30 05:10:49;;;;;;;2.63;2.20;;;22.00;63.80;;;;;;5057553;28;20273;-42
2022/06/30 05:13:16;;;;;;;2.47;2.28;;;22.00;64.00;;;;;;5065352;28;20095;-44
2022/06/30 05:15:45;;;;;;;2.50;2.28;;;22.00;63.90;;;;;;5062276;28;20032;-43
2022/06/30 05:18:11;;;;;;;2.35;2.15;;;22.00;63.90;;;;;;5062805;28;20131;-44
2022/06/30 05:20:37;;;;;;;2.40;2.20;;;22.00;64.00;;;;;;5065105;28;20135;-43
2022/06/30 05:23:03;;;;;;;3.08;2.22;;;22.00;64.00;;;;;;5060094;28;20273;-45
2022/06/30 05:28:14;;;;;;;1.90;1.80;;;22.00;64.00;;;;;;5076164;28;20428;-44
2022/06/30 05:30:41;;;;;;;2.35;2.15;;;22.00;63.20;;;;;;5074132;28;20032;-44
2022/06/30 05:33:08;;;;;;;2.50;2.30;;;22.00;62.60;;;;;;5075569;28;20044;-46
2022/06/30 05:35:34;;;;;;;2.13;1.92;;;22.00;63.20;;;;;;5075361;28;20038;-43
2022/06/30 05:38:00;;;;;;;2.30;2.10;;;22.10;63.60;;;;;;5075819;28;20122;-45
2022/06/30 05:40:27;;;;;;;2.22;2.00;;;22.00;63.60;;;;;;5078207;28;20032;-45
2022/06/30 05:42:54;;;;;;;1.90;1.80;;;22.00;63.60;;;;;;5075391;28;20044;-43
2022/06/30 05:45:20;;;;;;;2.10;1.90;;;22.00;63.70;;;;;;5076475;28;20025;-43
2022/06/30 05:47:47;;;;;;;2.05;1.85;;;22.00;63.80;;;;;;5077111;28;20045;-43
2022/06/30 05:50:14;;;;;;;2.05;1.90;;;22.00;63.80;;;;;;5075949;28;20098;-43
2022/06/30 05:52:41;;;;;;;1.70;1.60;;;22.00;63.40;;;;;;5075792;28;20100;-45
2022/06/30 05:55:08;;;;;;;2.00;1.90;;;22.10;62.90;;;;;;5076246;28;20025;-42
2022/06/30 05:57:34;;;;;;;3.10;2.67;;;22.00;62.90;;;;;;5076038;28;20036;-42
2022/06/30 06:00:00;;;;;;;1.73;1.63;;;22.00;63.20;;;;;;5076273;28;20060;-43
2022/06/30 06:02:26;;;;;;;2.03;1.80;;;22.00;63.30;;;;;;5072128;28;20033;-43
2022/06/30 06:04:52;;;;;;;1.55;1.45;;;22.10;63.40;;;;;;5073259;28;20043;-42
2022/06/30 06:07:19;;;;;;;1.80;1.70;;;22.00;63.40;;;;;;5074644;28;20036;-44
2022/06/30 06:09:45;;;;;;;2.25;2.05;;;22.00;63.40;;;;;;5072027;28;20398;-46
2022/06/30 06:12:12;;;;;;;2.90;2.10;;;22.10;63.60;;;;;;5075738;28;20048;-43
2022/06/30 06:14:38;;;;;;;1.77;1.67;;;22.00;63.50;;;;;;5074550;28;20044;-44
2022/06/30 06:17:04;;;;;;;1.65;1.55;;;22.10;63.00;;;;;;5076324;28;20054;-44
2022/06/30 06:19:31;;;;;;;1.90;1.80;;;22.10;62.40;;;;;;5074997;28;20028;-42
2022/06/30 06:21:57;;;;;;;1.80;1.70;;;22.00;62.90;;;;;;5073083;28;20033;-42
2022/06/30 06:24:23;;;;;;;1.75;1.65;;;22.00;63.10;;;;;;5072320;28;21078;-44
2022/06/30 06:26:49;;;;;;;1.60;1.50;;;22.00;63.20;;;;;;5065964;28;20077;-42
2022/06/30 06:29:15;;;;;;;1.75;1.65;;;22.00;63.10;;;;;;5066064;28;20088;-44
2022/06/30 06:31:41;;;;;;;2.25;1.80;;;22.00;63.20;;;;;;5066725;28;20195;-42
2022/06/30 06:34:08;;;;;;;1.38;1.27;;;22.10;63.30;;;;;;5066741;28;20041;-42
2022/06/30 06:36:34;;;;;;;2.03;1.67;;;22.00;63.30;;;;;;5068334;28;20059;-43
2022/06/30 06:39:00;;;;;;;1.70;1.60;;;22.00;62.90;;;;;;5065979;28;20024;-45
2022/06/30 06:41:26;;;;;;;1.40;1.30;;;22.10;62.40;;;;;;5064629;28;20025;-43
2022/06/30 06:43:52;;;;;;;1.70;1.60;;;22.00;62.10;;;;;;5068625;28;20048;-42
2022/06/30 06:46:19;;;;;;;1.63;1.52;;;22.00;62.80;;;;;;5069910;28;20032;-42
2022/06/30 06:48:45;;;;;;;1.67;1.58;;;22.00;62.80;;;;;;5069703;28;20887;-42
2022/06/30 06:51:11;;;;;;;1.65;1.55;;;22.00;62.80;;;;;;5068583;28;20076;-42
2022/06/30 06:53:37;;;;;;;1.50;1.40;;;22.00;62.80;;;;;;5072236;28;20066;-42
2022/06/30 06:56:04;;;;;;;1.45;1.35;;;22.00;62.90;;;;;;5080801;28;20529;-42
2022/06/30 06:58:31;;;;;;;1.50;1.40;;;22.00;62.90;;;;;;5079516;28;20028;-42
2022/06/30 07:00:58;;;;;;;1.70;1.60;;;22.00;62.90;;;;;;5081154;28;20036;-44
2022/06/30 07:03:24;;;;;;;1.52;1.42;;;22.00;62.90;;;;;;5080264;28;20032;-44
2022/06/30 07:05:50;;;;;;;1.90;1.60;;;22.00;63.00;;;;;;5071374;28;20025;-46
2022/06/30 07:08:16;;;;;;;2.17;1.48;;;22.00;63.00;;;;;;5080415;28;20032;-44
2022/06/30 07:10:43;;;;;;;1.50;1.40;;;22.00;63.10;;;;;;5081113;28;20028;-44
2022/06/30 07:13:09;;;;;;;1.70;1.60;;;22.00;62.60;;;;;;5083380;28;20068;-46
2022/06/30 07:15:35;;;;;;;1.40;1.30;;;22.00;62.20;;;;;;5084318;28;20108;-43
2022/06/30 07:18:01;;;;;;;1.50;1.40;;;22.00;62.50;;;;;;5084045;28;20033;-44
2022/06/30 07:20:27;;;;;;;1.60;1.50;;;22.00;62.60;;;;;;5084454;28;20025;-44
2022/06/30 07:22:54;;;;;;;1.40;1.30;;;22.00;62.70;;;;;;5081727;28;20036;-46
2022/06/30 07:25:20;;;;;;;1.38;1.27;;;22.00;62.70;;;;;;5076157;28;20028;-45
2022/06/30 07:27:46;;;;;;;1.65;1.55;;;22.00;62.70;;;;;;5071535;28;20040;-43
2022/06/30 07:30:12;;;;;;;1.67;1.58;;;22.00;62.70;;;;;;5069446;28;20154;-48
2022/06/30 07:32:38;;;;;;;1.67;1.58;;;22.00;62.80;;;;;;5063428;28;20068;-45
2022/06/30 07:35:06;;;;;;;2.88;1.70;;;22.00;62.80;;;;;;5067416;28;20035;-48
2022/06/30 07:37:36;;;;;;;1.50;1.40;;;22.00;62.70;;;;;;5067436;28;20041;-44
2022/06/30 07:40:02;;;;;;;1.70;1.42;;;22.00;62.30;;;;;;5064398;28;20039;-43
2022/06/30 07:42:28;;;;;;;1.63;1.52;;;22.00;61.80;;;;;;5067755;28;20722;-44
2022/06/30 07:44:54;;;;;;;1.40;1.30;;;22.00;62.30;;;;;;5070109;28;20053;-43
2022/06/30 07:47:20;;;;;;;1.42;1.33;;;22.00;62.30;;;;;;5066484;28;20029;-44
2022/06/30 07:49:46;;;;;;;1.60;1.50;;;22.00;62.40;;;;;;5069002;28;20036;-44
2022/06/30 07:52:12;;;;;;;1.88;1.55;;;22.00;62.50;;;;;;5068209;28;20082;-41
2022/06/30 07:54:39;;;;;;;2.20;1.48;;;22.00;62.60;;;;;;5070861;28;20020;-42
2022/06/30 07:57:05;;;;;;;2.38;1.80;;;22.00;62.70;;;;;;5078000;28;20028;-42
2022/06/30 07:59:31;;;;;;;1.73;1.60;;;22.00;62.80;;;;;;5087232;28;20032;-43
2022/06/30 08:01:59;;;;;;;2.08;1.63;;;22.00;62.80;;;;;;5080474;28;20032;-43
2022/06/30 08:04:25;;;;;;;5.47;1.63;;;22.00;63.30;;;;;;5082887;28;20034;-45
2022/06/30 08:06:51;;;;;;;2.80;1.80;;;22.00;63.80;;;;;;5083163;28;20507;-41
2022/06/30 08:09:18;;;;;;;3.20;1.60;;;22.00;63.60;;;;;;5083595;28;20031;-42
2022/06/30 08:11:44;;;;;;;3.40;1.55;;;22.00;63.40;;;;;;5082169;28;20485;-52
2022/06/30 08:14:10;;;;;;;2.78;1.52;;;22.00;63.30;;;;;;5084059;28;20357;-50
2022/06/30 08:16:36;;;;;;;2.50;1.40;;;22.00;63.20;;;;;;5084553;28;20063;-43
2022/06/30 08:19:03;;;;;;;5.13;1.58;;;22.00;63.20;;;;;;5083196;28;20054;-39
2022/06/30 08:21:29;;;;;;;2.60;1.50;;;22.00;63.30;;;;;;5080175;28;20024;-45
2022/06/30 08:23:55;;;;;;;3.08;1.42;;;22.00;63.50;;;;;;5082713;28;20047;-46
2022/06/30 08:26:22;;;;;;;4.03;1.70;;;22.00;63.40;;;;;;5082569;28;20029;-49
2022/06/30 08:28:48;;;;;;;2.70;1.70;;;22.00;63.20;;;;;;5082980;28;20063;-42
2022/06/30 08:31:16;;;;;;;2.92;1.63;;;22.00;62.80;;;;;;5082223;28;20028;-45
2022/06/30 08:33:42;;;;;;;3.25;1.30;;;22.00;63.00;;;;;;5083095;28;20032;-45
2022/06/30 08:36:08;;;;;;;2.33;1.52;;;22.00;63.00;;;;;;5085422;28;20120;-44
2022/06/30 08:38:34;;;;;;;2.20;1.52;;;22.00;63.00;;;;;;5082499;28;20032;-49
2022/06/30 08:43:45;;;;;;;2.08;1.50;;;22.00;62.90;;;;;;5084690;28;20045;-46
2022/06/30 08:46:12;;;;;;;1.90;1.40;;;22.00;62.90;;;;;;5077867;28;21339;-45
2022/06/30 08:48:39;;;;;;;3.28;1.40;;;22.00;62.90;;;;;;5081100;28;20037;-43
2022/06/30 08:51:05;;;;;;;1.55;1.40;;;22.00;62.90;;;;;;5080908;28;20035;-43
2022/06/30 08:53:41;;;;;;;2.40;1.05;;;22.00;63.00;;;;;;5083251;28;20040;-45
2022/06/30 08:56:07;;;;;;;2.55;1.50;;;22.00;62.90;;;;;;5074420;28;20032;-43
2022/06/30 08:58:33;;;;;;;1.55;1.30;;;22.00;62.60;;;;;;5081608;28;20044;-43
2022/06/30 09:00:59;;;;;;;1.33;1.23;;;22.00;62.30;;;;;;5080174;28;20029;-44
2022/06/30 09:03:25;;;;;;;2.13;1.35;;;22.00;62.20;;;;;;5081317;28;20041;-43
2022/06/30 09:05:51;;;;;;;1.60;1.50;;;22.00;62.20;;;;;;5083729;28;20109;-47
2022/06/30 09:08:18;;;;;;;1.90;1.40;;;22.00;62.30;;;;;;5076271;28;20118;-45
2022/06/30 09:10:51;;;;;;;1.42;1.20;;;22.00;62.30;;;;;;5081558;28;20035;-48
2022/06/30 09:13:17;;;;;;;1.40;1.30;;;22.00;62.30;;;;;;5077672;28;20491;-45
2022/06/30 09:15:43;;;;;;;1.48;1.27;;;22.00;62.30;;;;;;5084976;28;20035;-44
2022/06/30 09:18:21;;;;;;;1.70;1.40;;;22.00;62.40;;;;;;5081160;28;20028;-47
2022/06/30 09:20:47;;;;;;;1.58;1.48;;;22.00;62.40;;;;;;5077290;28;20180;-46
2022/06/30 09:23:30;;;;;;;1.30;1.20;;;22.00;62.40;;;;;;5075791;28;20025;-43
2022/06/30 09:26:02;;;;;;;1.48;1.38;;;22.00;62.70;;;;;;5078151;28;20039;-45
2022/06/30 09:28:50;;;;;;;1.05;1.02;;;22.00;62.40;;;;;;5060762;28;20032;-48
2022/06/30 09:31:31;;;;;;;1.30;1.20;;;22.00;62.10;;;;;;5073465;28;20039;-46
2022/06/30 09:34:10;;;;;;;1.75;1.23;;;22.00;61.90;;;;;;5078762;28;20289;-44
2022/06/30 09:36:36;;;;;;;1.30;1.20;;;22.00;61.90;;;;;;5071741;28;20055;-43
2022/06/30 09:39:03;;;;;;;1.58;1.10;;;22.00;61.90;;;;;;5078879;28;20043;-43
2022/06/30 09:41:30;;;;;;;1.58;1.20;;;22.00;61.90;;;;;;5076443;28;20020;-44
2022/06/30 09:43:56;;;;;;;1.35;1.25;;;22.00;62.10;;;;;;5077671;28;20139;-48
2022/06/30 09:46:23;;;;;;;1.42;1.30;;;22.00;62.00;;;;;;5061569;28;20039;-46
2022/06/30 09:48:49;;;;;;;1.35;1.25;;;22.00;62.10;;;;;;5078537;28;20036;-45
2022/06/30 09:51:15;;;;;;;1.27;1.10;;;22.00;62.10;;;;;;5077508;28;20020;-42
2022/06/30 09:53:41;;;;;;;1.83;1.25;;;22.00;62.10;;;;;;5071544;28;20033;-45
2022/06/30 09:56:14;;;;;;;1.48;1.10;;;22.00;62.10;;;;;;5070872;28;21184;-45
2022/06/30 09:58:42;;;;;;;1.23;1.10;;;22.00;62.50;;;;;;5072266;28;20047;-44
2022/06/30 10:01:08;;;;;;;;;;;22.00;62.30;;;;;;5072646;28;20047;-45
2022/06/30 10:03:34;;;;;;;2.78;1.20;;;22.00;61.90;;;;;;5071082;28;19912;-46
2022/06/30 10:06:08;;;;;;;1.42;1.17;;;22.00;61.80;;;;;;5053681;28;20028;-49
2022/06/30 10:08:34;;;;;;;1.23;1.13;;;21.90;61.70;;;;;;5072898;28;20041;-49
2022/06/30 10:11:00;;;;;;;1.00;1.00;;;22.00;61.80;;;;;;5066856;28;20048;-50
2022/06/30 10:13:27;;;;;;;1.00;1.00;;;22.00;61.80;;;;;;5073948;28;20068;-47
2022/06/30 10:15:54;;;;;;;1.23;1.10;;;22.00;61.90;;;;;;5075495;28;20024;-50
2022/06/30 10:18:25;;;;;;;1.30;1.20;;;22.00;62.00;;;;;;5066795;28;20067;-47
2022/06/30 10:20:51;;;;;;;1.30;1.20;;;22.00;62.00;;;;;;5072816;28;20037;-46
2022/06/30 10:23:20;;;;;;;1.45;1.23;;;21.90;61.90;;;;;;5078573;28;20029;-46
2022/06/30 10:25:49;;;;;;;1.35;1.25;;;22.00;62.00;;;;;;5082029;28;20051;-47
2022/06/30 10:28:17;;;;;;;2.08;1.20;;;22.00;62.10;;;;;;5078027;28;20691;-46
2022/06/30 10:30:52;;;;;;;0.85;0.85;;;21.90;62.00;;;;;;5081579;28;20044;-49
2022/06/30 10:33:48;;;;;;;1.10;1.10;;;21.90;62.40;;;;;;5069820;28;20048;-46
2022/06/30 10:36:23;;;;;;;1.67;1.30;;;21.90;62.10;;;;;;5069523;28;20027;-49
2022/06/30 10:39:04;;;;;;;1.00;1.00;;;21.90;61.70;;;;;;5072058;28;20134;-47
2022/06/30 10:41:30;;;;;;;1.15;1.10;;;21.90;61.60;;;;;;5071478;28;20024;-48
2022/06/30 10:44:05;;;;;;;1.13;0.98;;;21.90;61.60;;;;;;5073348;28;20044;-46
2022/06/30 10:46:35;;;;;;;2.25;1.00;;;21.90;61.60;;;;;;5072220;28;20036;-46
2022/06/30 10:49:07;;;;;;;1.13;1.00;;;21.90;61.70;;;;;;5077049;28;20029;-47
2022/06/30 10:51:33;;;;;;;1.27;1.17;;;21.90;61.60;;;;;;5075354;28;20059;-46
2022/06/30 10:54:00;;;;;;;2.75;1.20;;;21.90;61.70;;;;;;5058342;28;20104;-47
2022/06/30 10:56:48;;;;;;;1.70;1.10;;;21.90;61.70;;;;;;5078004;28;20131;-45
2022/06/30 10:59:14;;;;;;;;;;;21.90;61.80;;;;;;5075763;28;20028;-50
2022/06/30 11:02:15;;;;;;;1.33;1.00;;;21.90;61.70;;;;;;5078960;28;19916;-48
2022/06/30 11:04:42;;;;;;;1.02;1.02;;;21.90;61.90;;;;;;5086279;28;20028;-47
2022/06/30 11:07:11;;;;;;;1.10;1.00;;;21.90;61.80;;;;;;5085029;28;20035;-47
2022/06/30 11:09:44;;;;;;;0.90;0.90;;;21.90;61.90;;;;;;5084882;28;20028;-48
2022/06/30 11:12:17;;;;;;;1.10;1.00;;;21.90;61.90;;;;;;5085330;28;20140;-44
2022/06/30 11:14:48;;;;;;;1.00;1.00;;;21.90;61.90;;;;;;5085088;28;20024;-46
2022/06/30 11:17:19;;;;;;;1.10;1.00;;;21.90;61.90;;;;;;5089739;28;20036;-45
2022/06/30 11:19:48;;;;;;;1.10;1.00;;;21.90;61.90;;;;;;5087062;28;20052;-47
2022/06/30 11:22:15;;;;;;;0.75;0.75;;;21.90;62.40;;;;;;5087153;28;20061;-48
2022/06/30 11:24:42;;;;;;;1.02;0.93;;;21.90;62.30;;;;;;5085264;28;20705;-45
2022/06/30 11:27:17;;;;;;;1.20;1.10;;;21.90;62.00;;;;;;5064215;28;20037;-46
2022/06/30 11:29:47;;;;;;;1.20;1.10;;;21.90;61.80;;;;;;5084561;28;20051;-53
2022/06/30 11:32:13;;;;;;;1.35;1.10;;;21.90;61.80;;;;;;5082936;28;20135;-48
2022/06/30 11:34:40;;;;;;;1.20;1.10;;;21.90;61.80;;;;;;5082953;28;20085;-46
2022/06/30 11:37:09;;;;;;;;;;;21.90;61.80;;;;;;5086845;28;20097;-46
2022/06/30 11:39:35;;;;;;;;;;;21.90;61.80;;;;;;5086380;28;19999;-49
2022/06/30 11:42:06;;;;;;;0.90;0.90;;;21.90;61.80;;;;;;5086846;28;19942;-49
2022/06/30 11:44:38;;;;;;;1.17;1.08;;;21.90;62.00;;;;;;5080699;28;20025;-45
2022/06/30 11:47:06;;;;;;;0.90;0.90;;;21.90;62.00;;;;;;5086564;28;20056;-46
2022/06/30 11:49:46;;;;;;;0.90;0.90;;;21.90;62.10;;;;;;5082928;28;20044;-47
2022/06/30 11:52:17;;;;;;;0.82;0.82;;;21.90;62.20;;;;;;5084618;28;20689;-45
2022/06/30 11:54:49;;;;;;;1.10;1.00;;;21.90;62.30;;;;;;5082747;28;20032;-46
2022/06/30 11:57:15;;;;;;;1.25;1.15;;;21.90;62.30;;;;;;5085885;28;20036;-46
2022/06/30 11:59:45;;;;;;;0.70;0.70;;;21.90;62.30;;;;;;5082937;28;20054;-47
2022/06/30 12:02:12;;;;;;;0.90;0.90;;;21.90;62.30;;;;;;5077463;28;20017;-45
2022/06/30 12:04:41;;;;;;;0.87;0.87;;;21.90;62.30;;;;;;5082808;28;20028;-45
2022/06/30 12:07:08;;;;;;;0.80;0.80;;;21.90;62.40;;;;;;5079621;28;20277;-43
2022/06/30 12:09:55;;;;;;;0.90;0.90;;;21.90;62.40;;;;;;5020813;28;20054;-44
2022/06/30 12:12:28;;;;;;;2.58;1.13;;;21.90;62.40;;;;;;5022721;28;20053;-45
2022/06/30 12:14:59;;;;;;;1.83;0.70;;;21.90;62.50;;;;;;5020748;28;20037;-46
2022/06/30 12:17:29;;;;;;;2.15;1.02;;;21.90;63.40;;;;;;5020231;28;20034;-46
2022/06/30 12:19:55;;;;;;;0.80;0.75;;;21.90;62.60;;;;;;5021574;28;20034;-48
2022/06/30 12:22:46;;;;;;;1.00;1.00;;;21.90;62.60;;;;;;4961173;29;20051;-46
2022/06/30 12:25:13;;;;;;;0.88;0.88;;;21.90;62.70;;;;;;4945133;29;20035;-47
2022/06/30 12:27:43;;;;;;;0.85;0.85;;;21.90;62.80;;;;;;4962473;29;20106;-47
2022/06/30 12:30:14;;;;;;;0.85;0.85;;;21.90;62.90;;;;;;4962797;29;20051;-46
2022/06/30 12:32:40;;;;;;;1.02;1.00;;;21.90;63.10;;;;;;4961229;29;20043;-46
2022/06/30 12:35:08;;;;;;;2.30;0.93;;;21.90;62.90;;;;;;4961497;28;20039;-47
2022/06/30 12:37:40;;;;;;;0.88;0.82;;;21.90;62.60;;;;;;4961525;29;20180;-45
2022/06/30 12:40:08;;;;;;;0.93;0.80;;;21.90;62.50;;;;;;4955272;29;20038;-45
2022/06/30 12:42:45;;;;;;;1.52;1.00;;;21.90;63.40;;;;;;4956036;29;20061;-46
2022/06/30 12:45:33;;;;;;;1.20;1.10;;;21.90;62.60;;;;;;4952889;29;20062;-46
2022/06/30 12:48:00;;;;;;;0.98;0.98;;;21.90;62.70;;;;;;4998506;28;20034;-47
2022/06/30 12:50:26;;;;;;;0.85;0.80;;;21.90;62.80;;;;;;4995509;28;20042;-48
2022/06/30 12:52:52;;;;;;;1.40;1.00;;;21.90;62.80;;;;;;5002862;28;20085;-47
2022/06/30 12:55:38;;;;;;;0.98;0.90;;;21.90;62.90;;;;;;5002413;28;20121;-45
2022/06/30 12:58:04;;;;;;;1.23;0.80;;;21.90;63.00;;;;;;4973154;28;20043;-48
2022/06/30 13:00:48;;;;;;;1.25;1.15;;;21.90;63.00;;;;;;4977470;28;20042;-47
2022/06/30 13:03:14;;;;;;;1.02;0.98;;;22.00;63.20;;;;;;5006784;28;20130;-45